Flight Track Log - Related Links

Times and Time Zones

All times are in EDT time to prevent confusion due to time zone crossing. See the N818BA flight status page for this flight to view local times or setup timezone preferences in your user account.

Time Position Orientation Groundspeed Altitude Reporting Facility
EDT Latitude Longitude Course Direction KTS MPH feet Rate Location/Type
Mon 04:08:42 PM 41.1058 -73.8139 294° West 244 281 4,200  Level New York Center
Mon 04:09:58 PM 41.1333 -73.9333 287° West 264 304 9,300 3,443 Climbing New York TRACON
Mon 04:10:44 PM 41.1489 -73.9950 289° West 282 325 11,200 2,243 Climbing New York Center
Mon 04:11:45 PM 41.2006 -74.0828 308° West 321 369 13,300 2,644 Climbing New York Center
Mon 04:12:42 PM 41.2786 -74.1889 314° West 353 406 16,400 1,881 Climbing New York Center
Mon 04:13:43 PM 41.3469 -74.2808 315° West 379 436 17,000 1,041 Climbing New York Center
Mon 04:14:00 PM 41.4019 -74.3556 294° West  Level FlightAware Approximate
Mon 04:14:43 PM 41.4108 -74.3725 313° West 379 436 18,500  Level New York Center
Mon 04:15:45 PM 41.4733 -74.5006 303° West 379 436 21,400 2,672 Climbing New York Center
Mon 04:16:42 PM 41.5233 -74.6281 298° West 379 436 23,800 2,339 Climbing New York Center
Mon 04:17:43 PM 41.5797 -74.7561 301° West 394 453 26,000 2,132 Climbing New York Center
Mon 04:18:43 PM 41.6353 -74.8897 299° West 405 466 28,100 2,529 Climbing New York Center
Mon 04:19:44 PM 41.6931 -75.0239 300° West 415 478 31,100 2,678 Climbing New York Center
Mon 04:20:44 PM 41.7489 -75.1525 300° West 415 478 33,500 2,231 Climbing New York Center
Mon 04:21:45 PM 41.8061 -75.2872 300° West 410 472 35,600 1,916 Climbing New York Center
Mon 04:22:43 PM 41.8614 -75.4217 299° West 410 472 37,300 1,729 Climbing New York Center
Mon 04:23:43 PM 41.9167 -75.5539 299° West 410 472 39,000 1,289 Climbing New York Center
Mon 04:24:44 PM 41.9736 -75.6864 300° West 410 472 39,900 496 Climbing New York Center
Mon 04:25:44 PM 42.0322 -75.8275 299° West 417 480 40,000 36 Climbing New York Center
Mon 04:27:29 PM 42.1167 -76.0667 296° West 450 518 40,000  Level Toronto Center
Mon 04:28:09 PM 42.1697 -76.1814 302° West 439 505 40,000  Level Cleveland Center
Mon 04:29:09 PM 42.2192 -76.3350 294° West 439 505 40,000  Level Cleveland Center
Mon 04:30:09 PM 42.2661 -76.4778 294° West 432 497 40,000  Level Cleveland Center
Mon 04:31:09 PM 42.3131 -76.6264 293° West 432 497 40,000  Level Cleveland Center
Mon 04:32:09 PM 42.3597 -76.7753 293° West 432 497 40,000  Level Cleveland Center
Mon 04:33:09 PM 42.4083 -76.9217 294° West 432 497 40,000  Level Cleveland Center
Mon 04:34:09 PM 42.4525 -77.0708 292° West 432 497 40,000  Level Cleveland Center
Mon 04:35:09 PM 42.5008 -77.2203 294° West 432 497 40,000  Level Cleveland Center
Mon 04:36:09 PM 42.5467 -77.3703 293° West 432 497 40,000  Level Cleveland Center
Mon 04:37:09 PM 42.5969 -77.5256 294° West 437 503 40,000  Level Cleveland Center
Mon 04:38:09 PM 42.6406 -77.6789 291° West 442 509 40,000  Level Cleveland Center
Mon 04:39:09 PM 42.6947 -77.8486 294° West 442 509 40,000  Level Cleveland Center
Mon 04:40:09 PM 42.7378 -77.9967 292° West 442 509 40,000  Level Cleveland Center
Mon 04:41:09 PM 42.7825 -78.1447 292° West 442 509 40,000  Level Cleveland Center
Mon 04:42:09 PM 42.8275 -78.2986 292° West 437 503 40,000  Level Cleveland Center
Mon 04:43:09 PM 42.8719 -78.4500 292° West 437 503 40,000  Level Cleveland Center
Mon 04:44:09 PM 42.9183 -78.6017 293° West 432 497 40,000 -550 Level Cleveland Center
Mon 04:45:09 PM 42.9378 -78.7625 279° West 432 497 38,900 -1,350 Descending Cleveland Center
Mon 04:46:09 PM 42.9464 -78.9211 274° West 427 491 37,300 -1,600 Descending Cleveland Center
Mon 04:47:09 PM 42.9528 -79.0769 273° West 427 491 35,700 -1,586 Descending Cleveland Center
Mon 04:48:29 PM 42.9500 -79.2667 269° West 410 472 33,600 -1,629 Descending Toronto Center
Mon 04:49:29 PM 42.9500 -79.4333 270° West 410 472 31,900 -1,600 Descending Toronto Center
Mon 04:50:29 PM 42.9500 -79.5667 270° West 410 472 30,400 -950 Descending Toronto Center
Mon 04:51:29 PM 42.9333 -79.7167 261° West 410 472 30,000 -200 Descending Toronto Center
Mon 04:52:29 PM 42.9333 -79.8833 270° West 410 472 30,000  Level Toronto Center
Mon 04:53:29 PM 42.9167 -80.0500 262° West 410 472 30,000  Level Toronto Center
Mon 04:54:29 PM 42.9167 -80.2000 270° West 410 472 30,000 -100 Level Toronto Center
Mon 04:55:29 PM 42.9167 -80.3333 270° West 410 472 29,800 -850 Descending Toronto Center
Mon 04:56:29 PM 42.9000 -80.5000 262° West 410 472 28,300 -1,550 Descending Toronto Center
Mon 04:57:29 PM 42.9000 -80.6500 270° West 400 460 26,700 -1,500 Descending Toronto Center
Mon 04:58:29 PM 42.8833 -80.8167 262° West 400 460 25,300 -1,500 Descending Toronto Center
Mon 04:59:29 PM 42.8667 -80.9500 260° West 390 449 23,700 -1,650 Descending Toronto Center
Mon 05:00:29 PM 42.8667 -81.1167 270° West 390 449 22,000 -1,700 Descending Toronto Center
Mon 05:01:29 PM 42.8500 -81.2500 260° West 380 437 20,300 -1,550 Descending Toronto Center
Mon 05:02:29 PM 42.8500 -81.3833 270° West 360 414 18,900 -1,450 Descending Toronto Center
Mon 05:03:29 PM 42.8500 -81.5167 270° West 360 414 17,400 -1,550 Descending Toronto Center
Mon 05:04:29 PM 42.8333 -81.6500 260° West 350 403 15,800 -1,550 Descending Toronto Center
Mon 05:05:29 PM 42.8333 -81.7667 270° West 350 403 14,300 -1,550 Descending Toronto Center
Mon 05:06:29 PM 42.8333 -81.9000 270° West 340 391 12,700 -1,150 Descending Toronto Center
Mon 05:07:29 PM 42.8000 -82.0500 253° West 340 391 12,000 -1,000 Descending Toronto Center
Mon 05:08:29 PM 42.7667 -82.1500 246° West 340 391 10,700 -1,000 Descending Toronto Center
Mon 05:09:29 PM 42.7667 -82.2833 270° West 330 380 10,000 -350 Descending Toronto Center
Mon 05:10:29 PM 42.7500 -82.4000 259° West 320 368 10,000 50 Level Toronto Center
Mon 05:11:29 PM 42.7542 -82.5286 273° West 307 353 10,100  Climbing Cleveland Center
Mon 05:12:24 PM 42.7400 -82.6383 260° West 323 372 10,000 -68 Descending Cleveland Center
Mon 05:12:57 PM 42.7347 -82.6975 263° West 325 374 10,000 -710 Level Cleveland Center
Mon 05:13:57 PM 42.7200 -82.8072 260° West 318 366 8,900 -1,400 Descending Cleveland Center
Mon 05:14:57 PM 42.7014 -82.9111 256° West 299 344 7,200 -1,800 Descending Cleveland Center
Mon 05:15:57 PM 42.6889 -83.0153 261° West 289 333 5,300 -1,933 Descending Cleveland Center
Mon 05:16:27 PM 42.6833 -83.0772 263° West 273 314 4,300 -1,200 Descending Cleveland Center
Mon 05:16:57 PM 42.6761 -83.1164 256° West 283 326 4,100 -885 Descending Cleveland Center
Mon 05:17:28 PM 42.6731 -83.1672 265° West 233 268 3,400 -857 Descending Cleveland Center
Mon 05:18:35 PM 42.6689 -83.2544 266° West 186 214 2,700 -397 Descending Cleveland Center
Mon 05:19:29 PM 42.6675 -83.3081 268° West 160 184 2,600 -470 Descending Cleveland Center
Mon 05:20:30 PM 42.6642 -83.3617 265° West 132 152 1,800 -787 Descending Cleveland Center
Mon 05:22:00 PM 42.6500 -83.4167 251° West  Level FlightAware Approximate
Mon 05:29:00 PM 42.6656 -83.4205 251° West  Level Estimated
Mon 05:30:00 PM 42.6656 -83.4205 251° West  Level Estimated

Login

Don't have an account? Register now (free) for customized features, flight alerts, and more!